Time;durP1;ratioP1;P1;durP2;ratioP2;P2;SDS_P1;SDS_P2;PMS_P1;PMS_P2;Temp;Humidity;BMP_temperature;BMP_pressure;BME280_temperature;BME280_humidity;BME280_pressure;Samples;Min_cycle;Max_cycle;Signal;HPM_P1;HPM_P2
2022/03/03 00:01:35;;;;;;;62.38;33.15;;;1.50;99.90;;;;;;5053623;28;20044;-63
2022/03/03 00:04:02;;;;;;;69.88;36.63;;;1.40;99.90;;;;;;5053855;28;20113;-63
2022/03/03 00:06:28;;;;;;;63.83;32.22;;;1.40;99.90;;;;;;5036705;28;20040;-63
2022/03/03 00:08:53;;;;;;;67.57;35.22;;;1.40;99.90;;;;;;5053400;28;20299;-63
2022/03/03 00:11:19;;;;;;;66.97;35.80;;;1.30;99.90;;;;;;5053499;28;20044;-63
2022/03/03 00:13:45;;;;;;;67.88;36.28;;;1.20;99.90;;;;;;5053573;28;20075;-63
2022/03/03 00:16:11;;;;;;;64.45;35.67;;;1.10;99.90;;;;;;5053472;28;20508;-63
2022/03/03 00:18:37;;;;;;;69.43;36.92;;;1.10;99.90;;;;;;5053206;28;20563;-63
2022/03/03 00:21:03;;;;;;;62.83;35.20;;;1.10;99.90;;;;;;5053118;28;20040;-63
2022/03/03 00:23:30;;;;;;;66.47;35.55;;;1.00;99.90;;;;;;5045797;28;20088;-63
2022/03/03 00:25:55;;;;;;;69.18;35.50;;;1.00;99.90;;;;;;5074945;28;20117;-63
2022/03/03 00:28:21;;;;;;;61.70;34.25;;;1.00;99.90;;;;;;5077215;28;20490;-63
2022/03/03 00:30:47;;;;;;;61.53;33.22;;;1.00;99.90;;;;;;5077194;28;20407;-63
2022/03/03 00:33:13;;;;;;;59.78;34.15;;;1.00;99.90;;;;;;5056917;28;20404;-63
2022/03/03 00:35:39;;;;;;;68.05;35.85;;;0.90;99.90;;;;;;5057018;28;20136;-63
2022/03/03 00:38:05;;;;;;;74.97;36.28;;;0.90;99.90;;;;;;5057115;28;20469;-63
2022/03/03 00:40:31;;;;;;;64.60;36.08;;;0.80;99.90;;;;;;5056685;28;20112;-63
2022/03/03 00:42:57;;;;;;;69.88;35.67;;;0.80;99.90;;;;;;5056645;28;20120;-63
2022/03/03 00:45:23;;;;;;;72.72;38.92;;;0.80;99.90;;;;;;5040318;28;20040;-63
2022/03/03 00:47:49;;;;;;;67.68;35.67;;;0.80;99.90;;;;;;5056647;28;20485;-63
2022/03/03 00:50:15;;;;;;;66.25;38.22;;;0.80;99.90;;;;;;5073262;28;20041;-63
2022/03/03 00:52:41;;;;;;;66.50;36.15;;;0.70;99.90;;;;;;5076467;28;20082;-63
2022/03/03 00:55:08;;;;;;;63.25;34.55;;;0.70;99.90;;;;;;5074087;28;20081;-63
2022/03/03 00:57:34;;;;;;;61.40;34.33;;;0.70;99.90;;;;;;5076625;28;20040;-63
2022/03/03 01:00:01;;;;;;;60.33;33.47;;;0.70;99.90;;;;;;5076543;28;20397;-63
2022/03/03 01:02:27;;;;;;;67.10;34.58;;;0.60;99.90;;;;;;5076599;28;20166;-63
2022/03/03 01:04:53;;;;;;;57.63;31.02;;;0.50;99.90;;;;;;5076382;28;20505;-63
2022/03/03 01:07:18;;;;;;;58.05;31.20;;;0.50;99.90;;;;;;5076517;28;20036;-63
2022/03/03 01:09:44;;;;;;;61.25;33.95;;;0.40;99.90;;;;;;5076196;28;20404;-63
2022/03/03 01:12:10;;;;;;;65.47;35.78;;;0.40;99.90;;;;;;5076396;28;20109;-63
2022/03/03 01:14:36;;;;;;;61.10;32.03;;;0.30;99.90;;;;;;5059720;28;20126;-63
2022/03/03 01:17:02;;;;;;;63.97;35.67;;;0.30;99.90;;;;;;5076177;28;20577;-63
2022/03/03 01:19:30;;;;;;;73.70;36.95;;;0.20;99.90;;;;;;5075941;28;20157;-63
2022/03/03 01:21:57;;;;;;;71.65;36.58;;;0.20;99.90;;;;;;5059255;28;20043;-63
2022/03/03 01:24:23;;;;;;;73.03;38.50;;;0.20;99.90;;;;;;5073530;28;20166;-63
2022/03/03 01:26:49;;;;;;;75.72;37.67;;;0.20;99.90;;;;;;5075965;28;20519;-63
2022/03/03 01:29:15;;;;;;;72.50;36.38;;;0.30;99.90;;;;;;5059238;28;20047;-63
2022/03/03 01:31:41;;;;;;;72.38;36.20;;;0.30;99.90;;;;;;5083082;28;20120;-63
2022/03/03 01:34:07;;;;;;;77.25;37.50;;;0.30;99.90;;;;;;5095550;28;20065;-63
2022/03/03 01:36:34;;;;;;;77.20;38.70;;;0.40;99.90;;;;;;5079324;28;20104;-63
2022/03/03 01:39:01;;;;;;;77.38;40.85;;;0.40;99.90;;;;;;5079438;28;20380;-63
2022/03/03 01:41:26;;;;;;;73.72;38.25;;;0.40;99.90;;;;;;5095833;28;20429;-63
2022/03/03 01:51:41;;;;;;;69.88;35.50;;;0.50;99.90;;;;;;5113906;28;20053;-63
2022/03/03 01:54:07;;;;;;;71.40;37.90;;;0.50;99.90;;;;;;5093453;28;20471;-63
2022/03/03 01:56:34;;;;;;;75.55;37.95;;;0.40;99.90;;;;;;5095813;28;20168;-63
2022/03/03 01:59:00;;;;;;;70.78;38.58;;;0.40;99.90;;;;;;5078937;28;20031;-63
2022/03/03 02:01:27;;;;;;;77.22;37.03;;;0.40;99.90;;;;;;5078640;28;20051;-63
2022/03/03 02:03:53;;;;;;;74.35;39.03;;;0.30;99.90;;;;;;5095710;28;20078;-63
2022/03/03 02:06:18;;;;;;;69.85;36.80;;;0.30;99.90;;;;;;5095567;28;20075;-63
2022/03/03 02:08:44;;;;;;;74.28;38.22;;;0.30;99.90;;;;;;5095635;28;20035;-63
2022/03/03 02:11:11;;;;;;;72.10;36.42;;;0.30;99.90;;;;;;5095638;28;20512;-63
2022/03/03 02:13:37;;;;;;;73.00;38.20;;;0.30;99.90;;;;;;5078354;28;20127;-63
2022/03/03 02:16:03;;;;;;;73.35;37.47;;;0.20;99.90;;;;;;5095473;28;20126;-63
2022/03/03 02:18:29;;;;;;;71.13;35.38;;;0.10;99.90;;;;;;5078269;28;20042;-63
2022/03/03 02:20:54;;;;;;;76.28;38.15;;;0.10;99.90;;;;;;5094975;28;20039;-63
2022/03/03 02:23:20;;;;;;;77.82;38.63;;;0.10;99.90;;;;;;5091436;28;20067;-63
2022/03/03 02:25:46;;;;;;;74.63;40.33;;;0.10;99.90;;;;;;5055886;28;20043;-63
2022/03/03 02:28:12;;;;;;;74.57;37.33;;;0.10;99.90;;;;;;5074902;28;20032;-63
2022/03/03 02:30:38;;;;;;;76.68;39.08;;;0.10;99.90;;;;;;5074814;28;20055;-63
2022/03/03 02:33:04;;;;;;;70.68;38.38;;;0.10;99.90;;;;;;5074428;28;20446;-65
2022/03/03 02:35:30;;;;;;;79.13;39.90;;;0.20;99.90;;;;;;5058144;28;20044;-65
2022/03/03 02:37:56;;;;;;;78.55;39.53;;;0.20;99.90;;;;;;5074455;28;20492;-65
2022/03/03 02:40:22;;;;;;;77.43;39.40;;;0.20;99.90;;;;;;5074543;28;20036;-65
2022/03/03 02:42:53;;;;;;;76.50;39.50;;;0.20;99.90;;;;;;5074641;28;20136;-65
2022/03/03 02:45:20;;;;;;;76.65;38.60;;;0.30;99.90;;;;;;5057182;28;20101;-65
2022/03/03 02:47:48;;;;;;;73.45;38.03;;;0.30;99.90;;;;;;5074182;28;20040;-65
2022/03/03 02:50:16;;;;;;;81.00;41.30;;;0.30;99.90;;;;;;5087676;28;20147;-65
2022/03/03 02:52:42;;;;;;;72.95;39.78;;;0.40;99.90;;;;;;5074686;28;20059;-65
2022/03/03 02:55:09;;;;;;;73.18;38.63;;;0.40;99.90;;;;;;5071873;28;20492;-65
2022/03/03 02:57:53;;;;;;;69.05;35.85;;;0.40;99.90;;;;;;5074439;28;20547;-65
2022/03/03 03:00:23;;;;;;;68.00;34.65;;;0.40;99.90;;;;;;5074147;28;20044;-65
2022/03/03 03:02:49;;;;;;;67.30;37.35;;;0.40;99.90;;;;;;5074021;28;20526;-66
2022/03/03 03:05:16;;;;;;;65.78;33.72;;;0.40;99.90;;;;;;5074163;28;20032;-66
2022/03/03 03:07:42;;;;;;;71.53;37.22;;;0.40;99.90;;;;;;5083087;28;20032;-66
2022/03/03 03:10:08;;;;;;;68.07;35.00;;;0.30;99.90;;;;;;5074037;28;20072;-66
2022/03/03 03:12:34;;;;;;;67.53;34.67;;;0.20;99.90;;;;;;5074248;28;20043;-65
2022/03/03 03:15:00;;;;;;;66.32;35.70;;;0.20;99.90;;;;;;5073829;28;20408;-66
2022/03/03 03:17:25;;;;;;;70.78;37.15;;;0.10;99.90;;;;;;5073801;28;20127;-66
2022/03/03 03:19:51;;;;;;;67.40;33.38;;;0.00;99.90;;;;;;5068038;28;20123;-66
2022/03/03 03:22:17;;;;;;;61.80;32.72;;;0.00;99.90;;;;;;5073868;28;20036;-66
2022/03/03 03:24:43;;;;;;;68.63;35.85;;;0.00;99.90;;;;;;5070754;28;20052;-66
2022/03/03 03:27:09;;;;;;;68.90;37.05;;;-0.10;99.90;;;;;;5074034;28;20044;-66
2022/03/03 03:29:35;;;;;;;77.32;39.00;;;-0.10;99.90;;;;;;5057168;28;20047;-66
2022/03/03 03:32:01;;;;;;;75.85;36.92;;;-0.10;99.90;;;;;;5073826;28;20403;-66
2022/03/03 03:34:26;;;;;;;70.97;37.55;;;-0.20;99.90;;;;;;5073698;28;20055;-66
2022/03/03 03:36:52;;;;;;;70.78;35.63;;;-0.20;99.90;;;;;;5073689;28;20085;-66
2022/03/03 03:39:18;;;;;;;69.35;36.50;;;-0.20;99.90;;;;;;5057095;28;20048;-66
2022/03/03 03:41:44;;;;;;;75.10;37.55;;;-0.20;99.90;;;;;;5073787;28;20032;-66
2022/03/03 03:44:11;;;;;;;75.55;37.75;;;-0.30;99.90;;;;;;5073747;28;20109;-67
2022/03/03 03:46:37;;;;;;;70.50;35.08;;;-0.30;99.90;;;;;;5073710;28;20645;-66
2022/03/03 03:49:05;;;;;;;67.07;37.35;;;-0.30;99.90;;;;;;5056999;28;20040;-66
2022/03/03 03:51:31;;;;;;;70.10;37.03;;;-0.30;99.90;;;;;;5073758;28;20043;-66
2022/03/03 03:53:57;;;;;;;67.70;36.08;;;-0.30;99.90;;;;;;5056428;28;20040;-66
2022/03/03 03:56:23;;;;;;;69.40;36.55;;;-0.40;99.90;;;;;;5055624;28;20040;-66
2022/03/03 03:58:50;;;;;;;68.72;35.33;;;-0.40;99.90;;;;;;5077725;28;20036;-66
2022/03/03 04:01:16;;;;;;;72.03;35.38;;;-0.40;99.90;;;;;;5078500;28;20463;-66
2022/03/03 04:03:43;;;;;;;67.72;36.85;;;-0.50;99.90;;;;;;5078517;28;20119;-66
2022/03/03 04:06:09;;;;;;;74.00;37.72;;;-0.50;99.90;;;;;;5061720;28;20054;-66
2022/03/03 04:08:35;;;;;;;71.60;37.63;;;-0.50;99.90;;;;;;5078580;28;20044;-66
2022/03/03 04:11:02;;;;;;;69.85;36.92;;;-0.60;99.90;;;;;;5078394;28;20040;-66
2022/03/03 04:13:28;;;;;;;72.13;38.35;;;-0.50;99.90;;;;;;5078504;28;20105;-66
2022/03/03 04:15:54;;;;;;;73.10;36.63;;;-0.50;99.90;;;;;;5078111;28;20069;-66
2022/03/03 04:18:20;;;;;;;67.20;37.40;;;-0.50;99.90;;;;;;5078183;28;20122;-66
2022/03/03 04:20:46;;;;;;;71.78;38.45;;;-0.40;99.90;;;;;;5077855;28;20051;-66
2022/03/03 04:23:12;;;;;;;66.18;34.58;;;-0.40;99.90;;;;;;5077945;28;20055;-66
2022/03/03 04:25:38;;;;;;;59.85;31.00;;;-0.30;99.90;;;;;;5075825;28;20492;-66
2022/03/03 04:28:04;;;;;;;63.45;31.48;;;-0.30;99.90;;;;;;5077985;28;20059;-66
2022/03/03 04:30:30;;;;;;;62.80;31.52;;;-0.20;99.90;;;;;;5077733;28;20048;-66
2022/03/03 04:32:56;;;;;;;62.83;33.80;;;-0.20;99.90;;;;;;5078227;28;20043;-66
2022/03/03 04:35:22;;;;;;;62.55;33.38;;;-0.20;99.90;;;;;;5077767;28;20605;-66
2022/03/03 04:37:48;;;;;;;58.45;33.05;;;-0.30;99.90;;;;;;5077954;28;20137;-66
2022/03/03 04:40:14;;;;;;;66.90;34.80;;;-0.30;99.90;;;;;;5060885;28;20492;-66
2022/03/03 04:42:39;;;;;;;65.10;34.53;;;-0.30;99.90;;;;;;5077987;28;20089;-66
2022/03/03 04:45:06;;;;;;;60.63;32.75;;;-0.30;99.90;;;;;;5061285;28;20040;-66
2022/03/03 04:47:32;;;;;;;63.47;33.53;;;-0.20;99.90;;;;;;5061251;28;20043;-66
2022/03/03 04:49:58;;;;;;;57.40;32.25;;;-0.20;99.90;;;;;;5077807;28;20400;-66
2022/03/03 04:52:24;;;;;;;61.15;30.85;;;-0.10;99.90;;;;;;5077703;28;20059;-66
2022/03/03 04:54:50;;;;;;;63.53;34.15;;;-0.10;99.90;;;;;;5074097;28;20040;-66
2022/03/03 04:57:16;;;;;;;63.25;31.52;;;0.00;99.90;;;;;;5076601;28;20044;-66
2022/03/03 04:59:42;;;;;;;59.45;30.13;;;0.00;99.90;;;;;;5059772;28;20044;-66
2022/03/03 05:02:08;;;;;;;55.35;31.55;;;0.10;99.90;;;;;;5076637;28;20508;-66
2022/03/03 05:04:34;;;;;;;52.80;29.70;;;0.10;99.90;;;;;;5076392;28;20527;-66
2022/03/03 05:06:59;;;;;;;56.03;29.17;;;0.20;99.90;;;;;;5076394;28;20059;-66
2022/03/03 05:09:25;;;;;;;50.58;27.58;;;0.20;99.90;;;;;;5075597;28;20378;-66
2022/03/03 05:11:51;;;;;;;49.42;28.17;;;0.20;99.90;;;;;;5076160;28;20036;-66
2022/03/03 05:14:17;;;;;;;52.25;28.67;;;0.20;99.90;;;;;;5076209;28;20044;-66
2022/03/03 05:16:43;;;;;;;47.92;28.77;;;0.30;99.90;;;;;;5076336;28;20047;-66
2022/03/03 05:19:09;;;;;;;53.17;27.98;;;0.20;99.90;;;;;;5075956;28;20065;-66
2022/03/03 05:21:34;;;;;;;60.90;31.00;;;0.20;99.90;;;;;;5075880;28;20036;-66
2022/03/03 05:24:00;;;;;;;55.60;28.13;;;0.20;99.90;;;;;;5075189;28;20056;-66
2022/03/03 05:26:26;;;;;;;52.80;29.92;;;0.20;99.90;;;;;;5074041;28;20044;-66
2022/03/03 05:28:52;;;;;;;55.15;30.95;;;0.10;99.90;;;;;;5059203;28;20043;-66
2022/03/03 05:31:18;;;;;;;52.45;26.38;;;0.10;99.90;;;;;;5076365;28;20052;-66
2022/03/03 05:33:44;;;;;;;46.65;24.55;;;0.10;99.90;;;;;;5077069;28;20126;-66
2022/03/03 05:36:11;;;;;;;51.28;30.25;;;0.10;99.90;;;;;;5077051;28;20044;-66
2022/03/03 05:38:37;;;;;;;57.72;30.95;;;0.10;99.90;;;;;;5077035;28;20118;-66
2022/03/03 05:41:04;;;;;;;54.60;31.10;;;0.00;99.90;;;;;;5076629;28;20250;-66
2022/03/03 05:43:31;;;;;;;54.63;32.13;;;0.00;99.90;;;;;;5076896;28;20122;-66
2022/03/03 05:45:57;;;;;;;53.70;30.85;;;0.00;99.90;;;;;;5076771;28;20040;-66
2022/03/03 05:48:28;;;;;;;58.35;30.63;;;-0.10;99.90;;;;;;5076588;28;20040;-66
2022/03/03 05:50:55;;;;;;;54.15;29.98;;;-0.10;99.90;;;;;;5076470;28;20055;-66
2022/03/03 05:53:23;;;;;;;56.35;31.50;;;-0.10;99.90;;;;;;5076757;28;20080;-66
2022/03/03 05:55:58;;;;;;;59.53;30.67;;;-0.20;99.90;;;;;;5074078;28;20040;-66
2022/03/03 05:58:36;;;;;;;53.60;30.17;;;-0.10;99.90;;;;;;5076373;28;20128;-66
2022/03/03 06:01:02;;;;;;;53.92;30.38;;;-0.20;99.90;;;;;;5059511;28;20059;-66
2022/03/03 06:03:30;;;;;;;52.13;30.70;;;-0.20;99.90;;;;;;5059576;28;20048;-66
2022/03/03 06:06:02;;;;;;;53.15;29.80;;;-0.20;99.90;;;;;;5076383;28;20093;-66
2022/03/03 06:08:39;;;;;;;48.28;28.35;;;-0.20;99.90;;;;;;5076048;28;20048;-66
2022/03/03 06:11:10;;;;;;;49.53;30.17;;;-0.30;99.90;;;;;;5076347;28;20051;-66
2022/03/03 06:13:42;;;;;;;48.67;27.08;;;-0.40;99.90;;;;;;5059475;28;20487;-66
2022/03/03 06:16:08;;;;;;;50.88;29.05;;;-0.50;99.90;;;;;;5076187;28;20067;-66
2022/03/03 06:18:34;;;;;;;48.83;29.80;;;-0.40;99.90;;;;;;5075883;28;20051;-66
2022/03/03 06:21:00;;;;;;;48.25;27.27;;;-0.40;99.90;;;;;;5075355;28;20062;-66
2022/03/03 06:23:26;;;;;;;50.45;27.35;;;-0.40;99.90;;;;;;5074993;28;20092;-66
2022/03/03 06:26:04;;;;;;;48.42;27.48;;;-0.30;99.90;;;;;;5072426;28;20377;-66
2022/03/03 06:28:31;;;;;;;44.17;26.33;;;-0.30;99.90;;;;;;5074640;28;20101;-66
2022/03/03 06:30:57;;;;;;;49.65;28.50;;;-0.30;99.90;;;;;;5074966;28;20093;-68
2022/03/03 06:33:23;;;;;;;46.35;27.90;;;-0.30;99.90;;;;;;5074906;28;20044;-66
2022/03/03 06:35:49;;;;;;;51.03;27.67;;;-0.20;99.90;;;;;;5074591;28;20423;-67
2022/03/03 06:38:15;;;;;;;46.78;27.27;;;-0.10;99.90;;;;;;5074548;28;20044;-66
2022/03/03 06:40:41;;;;;;;42.78;26.98;;;-0.10;99.90;;;;;;5071452;28;20098;-66
2022/03/03 06:43:06;;;;;;;43.30;25.95;;;-0.10;99.90;;;;;;5057907;28;20118;-66
2022/03/03 06:45:32;;;;;;;45.05;26.08;;;-0.10;99.90;;;;;;5074477;28;20075;-66
2022/03/03 06:48:00;;;;;;;48.22;28.42;;;-0.10;99.90;;;;;;5074587;28;20086;-67
2022/03/03 06:50:27;;;;;;;48.92;27.40;;;-0.10;99.90;;;;;;5074665;28;20036;-66
2022/03/03 06:52:53;;;;;;;45.17;28.73;;;-0.10;99.90;;;;;;5057562;28;20097;-67
2022/03/03 06:55:24;;;;;;;44.53;25.67;;;-0.10;99.90;;;;;;5055257;28;20048;-67
2022/03/03 06:57:57;;;;;;;46.28;26.73;;;0.00;99.90;;;;;;5074437;28;20142;-67
2022/03/03 07:00:27;;;;;;;46.53;25.27;;;0.20;99.90;;;;;;5073963;28;20087;-68
2022/03/03 07:02:53;;;;;;;34.30;20.98;;;0.40;99.90;;;;;;5073936;28;20036;-68
2022/03/03 07:05:21;;;;;;;45.55;26.45;;;0.40;99.90;;;;;;5074179;28;20524;-68
2022/03/03 07:07:49;;;;;;;44.63;25.00;;;0.50;99.90;;;;;;5074325;28;20552;-68
2022/03/03 07:10:25;;;;;;;43.92;25.05;;;0.50;99.90;;;;;;5074369;28;20054;-68
2022/03/03 07:12:56;;;;;;;41.83;25.30;;;0.60;99.90;;;;;;5074218;28;20407;-68
2022/03/03 07:15:24;;;;;;;43.08;24.98;;;0.60;99.90;;;;;;5057703;28;20100;-69
2022/03/03 07:17:53;;;;;;;40.35;24.38;;;0.70;99.90;;;;;;5073916;28;20043;-68
2022/03/03 07:20:44;;;;;;;40.92;22.60;;;0.70;99.90;;;;;;5073993;28;20054;-68
2022/03/03 07:23:24;;;;;;;36.55;22.90;;;0.80;99.90;;;;;;5056972;28;20510;-68
2022/03/03 07:25:54;;;;;;;38.73;23.57;;;0.80;99.90;;;;;;5071556;28;20047;-68
2022/03/03 07:28:21;;;;;;;37.75;21.73;;;0.90;99.90;;;;;;5074228;28;20032;-68
2022/03/03 07:30:51;;;;;;;39.38;23.00;;;0.90;99.90;;;;;;5073880;28;20051;-68
2022/03/03 07:33:26;;;;;;;41.10;24.97;;;1.00;99.90;;;;;;5056755;28;20518;-68
2022/03/03 07:35:56;;;;;;;33.47;22.67;;;1.10;99.90;;;;;;5073789;28;20040;-68
2022/03/03 07:38:26;;;;;;;35.57;22.93;;;1.20;99.90;;;;;;5073804;28;20079;-68
2022/03/03 07:40:53;;;;;;;36.28;23.05;;;1.20;99.90;;;;;;5073630;28;20036;-68
2022/03/03 07:43:19;;;;;;;38.33;22.50;;;1.30;99.90;;;;;;5056943;28;20062;-68
2022/03/03 07:45:46;;;;;;;35.67;22.17;;;1.30;99.90;;;;;;5057145;28;20496;-67
2022/03/03 07:48:13;;;;;;;35.00;21.67;;;1.40;99.90;;;;;;5073634;28;20039;-67
2022/03/03 07:50:40;;;;;;;32.50;21.10;;;1.50;99.90;;;;;;5057049;28;20542;-67
2022/03/03 07:53:11;;;;;;;34.65;21.35;;;1.60;99.90;;;;;;5073845;28;20404;-67
2022/03/03 07:55:47;;;;;;;37.45;23.23;;;1.70;99.90;;;;;;5071548;28;20392;-67
2022/03/03 07:58:15;;;;;;;34.72;19.75;;;1.80;99.90;;;;;;5073653;28;20040;-67
2022/03/03 08:00:48;;;;;;;33.53;21.52;;;1.90;99.90;;;;;;5073597;28;20040;-66
2022/03/03 08:03:19;;;;;;;33.50;21.48;;;2.00;99.90;;;;;;5073515;28;20044;-66
2022/03/03 08:05:48;;;;;;;33.03;20.25;;;2.20;99.90;;;;;;5073660;28;20086;-67
2022/03/03 08:08:16;;;;;;;31.38;20.27;;;2.40;99.90;;;;;;5057030;28;20044;-66
2022/03/03 08:10:44;;;;;;;28.42;18.83;;;2.60;99.90;;;;;;5073816;28;20063;-66
2022/03/03 08:13:13;;;;;;;31.80;20.35;;;2.80;99.90;;;;;;5056709;28;20082;-66
2022/03/03 08:15:40;;;;;;;32.47;20.77;;;3.00;99.90;;;;;;5073425;28;20048;-66
2022/03/03 08:18:07;;;;;;;29.95;19.73;;;3.20;99.90;;;;;;5073632;28;20067;-67
2022/03/03 08:20:35;;;;;;;31.33;20.83;;;3.40;99.90;;;;;;5073396;28;20047;-65
2022/03/03 08:23:02;;;;;;;29.98;20.63;;;3.70;99.90;;;;;;5073363;28;20075;-65
2022/03/03 08:25:29;;;;;;;29.30;19.27;;;4.20;99.90;;;;;;5071005;28;20055;-64
2022/03/03 08:27:55;;;;;;;29.15;19.50;;;4.70;99.90;;;;;;5068047;28;20040;-65
2022/03/03 08:30:22;;;;;;;29.63;18.95;;;5.30;99.90;;;;;;5073527;28;20560;-65
2022/03/03 08:33:28;;;;;;;31.55;19.27;;;5.80;99.90;;;;;;5070471;28;20617;-65
2022/03/03 08:35:56;;;;;;;27.83;19.25;;;6.20;99.90;;;;;;5056099;28;20087;-65
2022/03/03 08:38:36;;;;;;;27.35;18.33;;;6.50;99.90;;;;;;5073277;28;20123;-65
2022/03/03 08:41:04;;;;;;;24.42;16.23;;;6.90;99.90;;;;;;5073142;28;20036;-65
2022/03/03 08:43:32;;;;;;;24.92;18.25;;;7.10;99.90;;;;;;5073558;28;20472;-65
2022/03/03 08:46:02;;;;;;;25.08;17.48;;;7.40;99.90;;;;;;5076811;28;20431;-65
2022/03/03 08:48:30;;;;;;;25.70;18.17;;;7.90;99.90;;;;;;5076588;28;20036;-65
2022/03/03 08:50:57;;;;;;;23.80;17.17;;;8.30;99.90;;;;;;5076535;28;20043;-65
2022/03/03 08:53:23;;;;;;;24.52;16.35;;;8.70;99.90;;;;;;5076807;28;20040;-65
2022/03/03 08:55:49;;;;;;;22.27;16.38;;;8.80;96.70;;;;;;5057702;28;20126;-65
2022/03/03 08:58:15;;;;;;;21.73;15.68;;;9.00;98.30;;;;;;5076489;28;20150;-65
2022/03/03 09:00:41;;;;;;;21.27;15.10;;;9.40;99.20;;;;;;5059755;28;20047;-66
2022/03/03 09:03:07;;;;;;;22.73;16.63;;;9.80;93.60;;;;;;5076717;28;20073;-65
2022/03/03 09:05:33;;;;;;;21.92;16.65;;;9.80;90.60;;;;;;5076603;28;20138;-65
2022/03/03 09:07:59;;;;;;;21.80;16.73;;;9.80;85.50;;;;;;5056955;28;20058;-65
2022/03/03 09:10:25;;;;;;;23.17;17.10;;;10.00;90.00;;;;;;5076350;28;20403;-65
2022/03/03 09:12:51;;;;;;;21.13;17.08;;;10.40;89.80;;;;;;5059707;28;20052;-65
2022/03/03 09:15:17;;;;;;;19.83;15.90;;;10.80;90.70;;;;;;5076627;28;20223;-65
2022/03/03 09:17:43;;;;;;;23.23;17.42;;;11.20;89.50;;;;;;5076338;28;20046;-65
2022/03/03 09:20:13;;;;;;;20.45;15.95;;;11.50;87.30;;;;;;5076150;28;20044;-65
2022/03/03 09:22:40;;;;;;;21.38;17.15;;;11.70;81.00;;;;;;5075998;28;20549;-65
2022/03/03 09:25:07;;;;;;;23.15;17.02;;;11.90;77.00;;;;;;5073633;28;20109;-65
2022/03/03 09:27:32;;;;;;;21.77;16.55;;;12.10;78.70;;;;;;5059524;28;20044;-65
2022/03/03 09:29:58;;;;;;;20.50;16.75;;;12.30;78.50;;;;;;5075850;28;20051;-65
2022/03/03 09:32:24;;;;;;;16.60;11.50;;;12.40;74.60;;;;;;5076200;28;20082;-65
2022/03/03 09:34:50;;;;;;;19.08;14.13;;;12.50;71.80;;;;;;5059113;28;20471;-65
2022/03/03 09:37:16;;;;;;;19.20;16.27;;;12.40;67.30;;;;;;5075883;28;20048;-65
2022/03/03 09:39:43;;;;;;;20.27;16.45;;;12.30;70.50;;;;;;5059209;28;20047;-65
2022/03/03 09:42:10;;;;;;;18.48;15.65;;;12.60;70.10;;;;;;5071435;28;20098;-65
2022/03/03 09:44:36;;;;;;;18.63;16.02;;;12.80;63.80;;;;;;5075482;28;20496;-65
2022/03/03 09:47:02;;;;;;;20.83;16.33;;;12.60;61.00;;;;;;5058808;28;20035;-65
2022/03/03 09:49:30;;;;;;;20.27;15.70;;;12.60;65.30;;;;;;5058700;28;20341;-65
2022/03/03 09:52:00;;;;;;;18.75;15.30;;;12.80;64.80;;;;;;5055521;28;20127;-67
2022/03/03 09:54:26;;;;;;;19.77;16.30;;;13.00;64.50;;;;;;5055944;28;20531;-65
2022/03/03 09:56:52;;;;;;;21.90;17.13;;;13.20;64.10;;;;;;5075153;28;20522;-65
2022/03/03 09:59:18;;;;;;;19.88;15.90;;;13.30;62.90;;;;;;5058596;28;20128;-65
2022/03/03 10:01:46;;;;;;;20.02;17.02;;;13.40;61.80;;;;;;5075319;28;20507;-65
2022/03/03 10:04:23;;;;;;;21.08;16.15;;;13.60;63.40;;;;;;5072151;28;20603;-65
2022/03/03 10:06:49;;;;;;;17.60;15.23;;;13.60;61.00;;;;;;5075085;28;20036;-65
2022/03/03 10:09:19;;;;;;;21.77;16.23;;;13.70;59.00;;;;;;5058437;28;20085;-66
2022/03/03 10:12:06;;;;;;;19.73;17.10;;;13.80;61.30;;;;;;5075129;28;20431;-65
2022/03/03 10:14:35;;;;;;;19.05;16.08;;;14.10;58.10;;;;;;5074949;28;20040;-66
2022/03/03 10:17:04;;;;;;;19.67;15.98;;;14.30;57.80;;;;;;5074875;28;20036;-66
2022/03/03 10:19:31;;;;;;;18.48;15.73;;;14.60;59.40;;;;;;5074756;28;20086;-66
2022/03/03 10:21:56;;;;;;;18.88;15.18;;;14.90;60.00;;;;;;5074914;28;20042;-66
2022/03/03 10:24:24;;;;;;;19.05;15.73;;;15.10;59.50;;;;;;5055389;28;20048;-66
2022/03/03 10:27:01;;;;;;;17.63;15.73;;;15.20;56.40;;;;;;5074409;28;20047;-66
2022/03/03 10:29:29;;;;;;;20.13;15.68;;;15.50;57.40;;;;;;5074915;28;20461;-66
2022/03/03 10:31:56;;;;;;;17.35;14.68;;;15.70;55.30;;;;;;5074955;28;20043;-66
2022/03/03 10:34:32;;;;;;;16.23;14.10;;;15.50;52.20;;;;;;5074482;28;20488;-66
2022/03/03 10:37:06;;;;;;;17.48;14.50;;;15.20;50.70;;;;;;5074641;28;20373;-65
2022/03/03 10:39:48;;;;;;;21.38;15.48;;;15.20;53.10;;;;;;5074380;28;20044;-65
2022/03/03 10:42:16;;;;;;;19.85;15.15;;;15.20;51.80;;;;;;5070446;28;20055;-66
2022/03/03 10:44:43;;;;;;;16.08;12.57;;;15.20;51.50;;;;;;5074396;28;20059;-65
2022/03/03 10:47:09;;;;;;;18.20;14.02;;;15.20;49.70;;;;;;5074462;28;20040;-65
2022/03/03 10:49:44;;;;;;;19.20;14.88;;;15.00;49.70;;;;;;5074454;28;20063;-65
2022/03/03 10:52:16;;;;;;;17.80;15.50;;;14.70;50.40;;;;;;5058067;28;20365;-65
2022/03/03 10:55:03;;;;;;;16.55;14.80;;;14.90;51.70;;;;;;5071757;28;20040;-65
2022/03/03 10:57:39;;;;;;;19.90;14.85;;;15.20;51.60;;;;;;5074095;28;20097;-66
2022/03/03 11:00:15;;;;;;;16.88;15.07;;;15.50;53.10;;;;;;5057452;28;20040;-65
2022/03/03 11:02:44;;;;;;;16.83;13.93;;;15.90;53.70;;;;;;5074423;28;20075;-65
2022/03/03 11:05:13;;;;;;;15.32;13.60;;;16.30;49.70;;;;;;5074216;28;20114;-66
2022/03/03 11:07:41;;;;;;;17.73;14.32;;;16.40;50.60;;;;;;5073626;28;20058;-65
2022/03/03 11:10:12;;;;;;;16.48;13.68;;;16.50;50.40;;;;;;5057168;28;20499;-66
2022/03/03 11:12:40;;;;;;;16.60;14.25;;;16.70;50.50;;;;;;5074272;28;20046;-65
2022/03/03 11:15:07;;;;;;;16.90;14.20;;;16.70;50.80;;;;;;5057356;28;20055;-64
2022/03/03 11:17:34;;;;;;;16.38;14.10;;;16.90;50.40;;;;;;5074001;28;20534;-66
2022/03/03 11:20:00;;;;;;;16.30;13.75;;;17.20;50.30;;;;;;5073847;28;20085;-66
2022/03/03 11:22:27;;;;;;;15.82;14.10;;;17.30;50.50;;;;;;5057439;28;20040;-66
2022/03/03 11:24:58;;;;;;;15.70;12.98;;;17.40;49.20;;;;;;5071280;28;20595;-66
2022/03/03 11:27:38;;;;;;;14.98;13.38;;;17.40;47.20;;;;;;5073829;28;20036;-65
2022/03/03 11:30:11;;;;;;;14.15;12.60;;;17.60;47.20;;;;;;5074133;28;20040;-65
2022/03/03 11:32:37;;;;;;;15.48;13.88;;;17.60;48.10;;;;;;5073911;28;20294;-65
2022/03/03 11:35:08;;;;;;;16.33;14.30;;;17.60;47.80;;;;;;5057038;28;20048;-66
2022/03/03 11:37:45;;;;;;;13.80;12.27;;;17.40;46.00;;;;;;5057384;28;20032;-66
2022/03/03 11:40:16;;;;;;;15.70;13.20;;;17.30;46.20;;;;;;5073817;28;20113;-66
2022/03/03 11:42:49;;;;;;;14.15;12.75;;;17.30;46.90;;;;;;5074011;28;20457;-66
2022/03/03 11:45:18;;;;;;;14.55;13.07;;;17.60;47.10;;;;;;5073683;28;20040;-65
2022/03/03 11:47:47;;;;;;;13.93;11.95;;;17.70;48.20;;;;;;5074125;28;20036;-66
2022/03/03 11:50:22;;;;;;;13.90;11.75;;;17.70;42.60;;;;;;5073574;28;20084;-65
2022/03/03 11:53:11;;;;;;;13.05;11.63;;;16.90;41.50;;;;;;5073708;28;20102;-65
2022/03/03 11:55:57;;;;;;;14.25;12.75;;;16.30;43.00;;;;;;5070671;28;20044;-65
2022/03/03 11:58:38;;;;;;;13.70;11.45;;;16.50;45.70;;;;;;5073894;28;20101;-66
2022/03/03 12:01:12;;;;;;;14.80;11.60;;;16.70;44.00;;;;;;5073471;28;20047;-66
2022/03/03 12:04:02;;;;;;;12.43;11.13;;;16.90;44.50;;;;;;5073752;28;20190;-65
2022/03/03 12:06:45;;;;;;;12.75;11.30;;;17.10;43.00;;;;;;5073867;28;20476;-65
2022/03/03 12:09:26;;;;;;;12.18;10.65;;;17.30;42.70;;;;;;5070851;28;20390;-65
2022/03/03 12:12:16;;;;;;;13.48;10.45;;;17.30;40.80;;;;;;5073475;28;20044;-65
2022/03/03 12:14:55;;;;;;;12.63;10.65;;;17.40;41.30;;;;;;5073730;28;20040;-65
2022/03/03 12:17:34;;;;;;;11.07;9.98;;;17.30;38.90;;;;;;5073603;28;20131;-65
2022/03/03 12:20:32;;;;;;;14.53;11.40;;;17.20;41.40;;;;;;5077377;28;20496;-65
2022/03/03 12:23:13;;;;;;;11.02;9.75;;;17.30;43.10;;;;;;5077341;28;20501;-65
2022/03/03 12:25:54;;;;;;;11.20;10.00;;;16.90;39.70;;;;;;5066644;28;20093;-65
2022/03/03 12:28:24;;;;;;;;;;;16.10;40.50;;;;;;5063267;28;20049;-65
2022/03/03 12:30:52;;;;;;;10.85;8.90;;;15.40;40.70;;;;;;5056972;28;19916;-65
2022/03/03 12:33:27;;;;;;;9.55;8.52;;;15.20;42.20;;;;;;5054660;28;20040;-65
2022/03/03 12:36:07;;;;;;;9.40;8.38;;;15.00;43.30;;;;;;5055958;28;20032;-65
2022/03/03 12:38:37;;;;;;;10.95;8.93;;;14.80;44.40;;;;;;5074080;28;20570;-65
2022/03/03 12:41:04;;;;;;;10.48;9.10;;;15.00;45.80;;;;;;5056644;28;20076;-65
2022/03/03 12:43:41;;;;;;;11.57;9.63;;;15.40;45.80;;;;;;5056686;28;20041;-66
2022/03/03 12:46:08;;;;;;;11.43;10.18;;;15.70;47.00;;;;;;5056816;28;20173;-65
2022/03/03 12:48:34;;;;;;;11.95;8.30;;;15.50;46.70;;;;;;5056680;28;20095;-65